Time;durP1;ratioP1;P1;durP2;ratioP2;P2;SDS_P1;SDS_P2;PMS_P1;PMS_P2;Temp;Humidity;BMP_temperature;BMP_pressure;BME280_temperature;BME280_humidity;BME280_pressure;Samples;Min_cycle;Max_cycle;Signal;HPM_P1;HPM_P2
2024/01/20 00:01:23;;;;;;;32.90;22.17;;;;;;;;;;5073471;28;20438;-44
2024/01/20 00:03:49;;;;;;;36.50;24.03;;;;;;;;;;5071815;28;20214;-45
2024/01/20 00:06:15;;;;;;;31.87;22.60;;;;;;;;;;5068498;28;20525;-46
2024/01/20 00:08:41;;;;;;;35.27;24.13;;;;;;;;;;5073740;28;20516;-46
2024/01/20 00:11:07;;;;;;;31.40;23.87;;;;;;;;;;5073892;28;20261;-46
2024/01/20 00:13:33;;;;;;;34.27;24.40;;;;;;;;;;5073428;28;20227;-46
2024/01/20 00:15:59;;;;;;;33.77;22.93;;;;;;;;;;5073793;28;20210;-46
2024/01/20 00:18:26;;;;;;;35.13;23.33;;;;;;;;;;5073254;28;20698;-46
2024/01/20 00:20:52;;;;;;;33.57;23.70;;;;;;;;;;5073387;28;20252;-46
2024/01/20 00:23:18;;;;;;;34.93;22.97;;;;;;;;;;5073175;28;20802;-46
2024/01/20 00:25:44;;;;;;;29.77;22.83;;;;;;;;;;5073509;28;20274;-46
2024/01/20 00:28:10;;;;;;;29.20;22.43;;;;;;;;;;5073184;28;20249;-46
2024/01/20 00:30:36;;;;;;;32.90;22.53;;;;;;;;;;5073366;28;20192;-46
2024/01/20 00:33:02;;;;;;;31.73;23.70;;;;;;;;;;5073181;28;20437;-46
2024/01/20 00:35:29;;;;;;;31.47;23.77;;;;;;;;;;5073364;28;20199;-46
2024/01/20 00:37:55;;;;;;;34.33;24.57;;;;;;;;;;5073259;28;20485;-46
2024/01/20 00:40:21;;;;;;;32.40;22.77;;;;;;;;;;5072914;28;20430;-46
2024/01/20 00:42:47;;;;;;;30.97;22.87;;;;;;;;;;5072990;28;20453;-46
2024/01/20 00:45:13;;;;;;;30.63;22.93;;;;;;;;;;5072903;28;20235;-47
2024/01/20 00:47:39;;;;;;;34.70;24.60;;;;;;;;;;5072831;28;20196;-48
2024/01/20 00:50:06;;;;;;;37.07;23.67;;;;;;;;;;5072937;28;20878;-54
2024/01/20 00:52:33;;;;;;;34.97;22.97;;;;;;;;;;5067962;28;20200;-51
2024/01/20 00:54:59;;;;;;;29.47;23.20;;;;;;;;;;5064490;28;20453;-52
2024/01/20 00:57:25;;;;;;;39.37;25.00;;;;;;;;;;5069352;28;20473;-50
2024/01/20 00:59:51;;;;;;;36.87;25.60;;;;;;;;;;5071214;28;20448;-50
2024/01/20 01:02:18;;;;;;;35.73;24.60;;;;;;;;;;5065992;28;20195;-51
2024/01/20 01:04:44;;;;;;;33.63;25.37;;;;;;;;;;5066044;28;20192;-53
2024/01/20 01:07:10;;;;;;;36.63;25.27;;;;;;;;;;5062280;28;20802;-50
2024/01/20 01:09:38;;;;;;;32.10;24.43;;;;;;;;;;5064100;28;20727;-50
2024/01/20 01:12:04;;;;;;;35.30;25.53;;;;;;;;;;5065580;28;20542;-51
2024/01/20 01:14:30;;;;;;;38.63;25.20;;;;;;;;;;5064153;28;20528;-50
2024/01/20 01:16:56;;;;;;;38.10;26.33;;;;;;;;;;5062214;28;20568;-50
2024/01/20 01:19:23;;;;;;;34.00;25.77;;;;;;;;;;5063894;28;20224;-50
2024/01/20 01:21:49;;;;;;;35.47;25.73;;;;;;;;;;5063852;28;20203;-50
2024/01/20 01:24:16;;;;;;;36.77;26.07;;;;;;;;;;5063842;28;20472;-50
2024/01/20 01:26:43;;;;;;;42.63;27.60;;;;;;;;;;5062101;28;20658;-50
2024/01/20 01:29:09;;;;;;;36.40;25.90;;;;;;;;;;5060035;28;20986;-50
2024/01/20 01:31:35;;;;;;;33.03;25.33;;;;;;;;;;5060243;28;20531;-50
2024/01/20 01:34:01;;;;;;;39.47;25.90;;;;;;;;;;5060269;28;20947;-51
2024/01/20 01:36:27;;;;;;;36.47;26.37;;;;;;;;;;5059606;28;20766;-50
2024/01/20 01:38:53;;;;;;;36.50;26.53;;;;;;;;;;5060129;28;20198;-51
2024/01/20 01:41:19;;;;;;;39.93;25.83;;;;;;;;;;5061863;28;20188;-51
2024/01/20 01:43:46;;;;;;;33.50;24.73;;;;;;;;;;5058774;28;21006;-50
2024/01/20 01:46:13;;;;;;;36.10;25.17;;;;;;;;;;5058382;28;20211;-50
2024/01/20 01:48:39;;;;;;;36.60;25.13;;;;;;;;;;5058379;28;20848;-50
2024/01/20 01:51:06;;;;;;;32.97;24.87;;;;;;;;;;5059981;28;20438;-50
2024/01/20 01:53:32;;;;;;;39.77;25.60;;;;;;;;;;5059947;28;20979;-51
2024/01/20 01:55:59;;;;;;;36.00;25.80;;;;;;;;;;5060043;28;20438;-50
2024/01/20 01:58:26;;;;;;;35.00;24.17;;;;;;;;;;5059697;28;20478;-50
2024/01/20 02:00:53;;;;;;;36.87;24.13;;;;;;;;;;5058158;28;20448;-50
2024/01/20 02:03:19;;;;;;;36.40;25.83;;;;;;;;;;5059794;28;20508;-50
2024/01/20 02:05:45;;;;;;;35.53;24.10;;;;;;;;;;5059893;28;20473;-51
2024/01/20 02:08:11;;;;;;;35.47;24.80;;;;;;;;;;5059949;28;20202;-51
2024/01/20 02:10:38;;;;;;;42.93;25.43;;;;;;;;;;5058015;28;20797;-50
2024/01/20 02:13:04;;;;;;;34.87;24.60;;;;;;;;;;5057943;28;20820;-51
2024/01/20 02:15:30;;;;;;;31.73;22.00;;;;;;;;;;5059831;28;20452;-50
2024/01/20 02:17:57;;;;;;;33.47;22.87;;;;;;;;;;5057880;28;20540;-50
2024/01/20 02:20:24;;;;;;;33.10;21.93;;;;;;;;;;5057910;28;20437;-50
2024/01/20 02:22:51;;;;;;;31.50;22.13;;;;;;;;;;5059806;28;20438;-50
2024/01/20 02:25:17;;;;;;;36.47;23.70;;;;;;;;;;5059678;28;20446;-50
2024/01/20 02:27:43;;;;;;;33.00;21.97;;;;;;;;;;5058090;28;20441;-50
2024/01/20 02:30:10;;;;;;;41.20;24.47;;;;;;;;;;5057949;28;20662;-50
2024/01/20 02:32:36;;;;;;;32.20;22.07;;;;;;;;;;5059557;28;20666;-50
2024/01/20 02:35:02;;;;;;;34.00;22.30;;;;;;;;;;5058151;28;20438;-51
2024/01/20 02:37:28;;;;;;;35.10;24.47;;;;;;;;;;5057739;28;20482;-50
2024/01/20 02:39:56;;;;;;;38.33;23.17;;;;;;;;;;5058016;28;20430;-50
2024/01/20 02:42:22;;;;;;;34.30;23.40;;;;;;;;;;5057638;28;20864;-50
2024/01/20 02:44:49;;;;;;;33.23;22.33;;;;;;;;;;5057789;28;20471;-50
2024/01/20 02:47:15;;;;;;;34.43;23.00;;;;;;;;;;5058621;28;20204;-50
2024/01/20 02:49:41;;;;;;;30.60;21.20;;;;;;;;;;5061835;28;20519;-50
2024/01/20 02:52:07;;;;;;;35.87;23.43;;;;;;;;;;5061644;28;20919;-51
2024/01/20 02:54:33;;;;;;;31.53;21.37;;;;;;;;;;5061503;28;20294;-50
2024/01/20 02:57:01;;;;;;;37.90;22.33;;;;;;;;;;5068454;28;20216;-50
2024/01/20 02:59:27;;;;;;;33.67;22.17;;;;;;;;;;5075136;28;20886;-50
2024/01/20 03:01:53;;;;;;;33.63;22.33;;;;;;;;;;5075190;28;20468;-49
2024/01/20 03:04:19;;;;;;;31.87;21.83;;;;;;;;;;5075084;28;20425;-50
2024/01/20 03:06:45;;;;;;;39.73;23.37;;;;;;;;;;5075252;28;20970;-49
2024/01/20 03:09:14;;;;;;;36.07;24.37;;;;;;;;;;5075068;28;20215;-50
2024/01/20 03:11:41;;;;;;;36.63;23.63;;;;;;;;;;5074915;28;20239;-50
2024/01/20 03:14:08;;;;;;;32.93;22.73;;;;;;;;;;5074911;28;20614;-50
2024/01/20 03:16:34;;;;;;;34.20;23.20;;;;;;;;;;5074667;28;20449;-50
2024/01/20 03:19:00;;;;;;;39.57;23.43;;;;;;;;;;5074925;28;20452;-49
2024/01/20 03:21:26;;;;;;;34.70;23.27;;;;;;;;;;5074654;28;20208;-50
2024/01/20 03:23:53;;;;;;;39.60;22.80;;;;;;;;;;5074896;28;20203;-50
2024/01/20 03:26:20;;;;;;;32.93;22.23;;;;;;;;;;5074594;28;20612;-50
2024/01/20 03:28:46;;;;;;;37.60;23.40;;;;;;;;;;5074717;28;20545;-50
2024/01/20 03:31:13;;;;;;;37.03;23.20;;;;;;;;;;5074596;28;20438;-50
2024/01/20 03:33:39;;;;;;;34.13;22.77;;;;;;;;;;5074685;28;20437;-50
2024/01/20 03:36:05;;;;;;;32.47;20.83;;;;;;;;;;5074570;28;20537;-50
2024/01/20 03:38:31;;;;;;;36.27;22.93;;;;;;;;;;5074461;28;20281;-50
2024/01/20 03:40:57;;;;;;;34.07;21.70;;;;;;;;;;5074590;28;20441;-49
2024/01/20 03:43:23;;;;;;;34.60;20.83;;;;;;;;;;5074317;28;20221;-51
2024/01/20 03:45:49;;;;;;;35.83;22.67;;;;;;;;;;5074278;28;20438;-50
2024/01/20 03:48:17;;;;;;;35.23;21.10;;;;;;;;;;5074502;28;20207;-51
2024/01/20 03:50:43;;;;;;;34.20;20.40;;;;;;;;;;5074376;28;20437;-50
2024/01/20 03:53:09;;;;;;;36.43;22.30;;;;;;;;;;5074172;28;20522;-50
2024/01/20 03:55:35;;;;;;;36.50;21.57;;;;;;;;;;5074067;28;20477;-50
2024/01/20 03:58:01;;;;;;;32.47;20.13;;;;;;;;;;5073585;28;20230;-50
2024/01/20 04:00:27;;;;;;;35.00;22.40;;;;;;;;;;5074125;28;20699;-49
2024/01/20 04:02:53;;;;;;;36.20;22.30;;;;;;;;;;5074148;28;20446;-50
2024/01/20 04:05:20;;;;;;;34.13;20.07;;;;;;;;;;5073940;28;20531;-50
2024/01/20 04:07:46;;;;;;;34.50;22.63;;;;;;;;;;5074157;28;20207;-49
2024/01/20 04:10:12;;;;;;;38.67;22.10;;;;;;;;;;5073943;28;20426;-50
2024/01/20 04:12:39;;;;;;;33.33;21.63;;;;;;;;;;5073473;28;20561;-50
2024/01/20 04:15:05;;;;;;;35.10;21.63;;;;;;;;;;5073784;28;20203;-50
2024/01/20 04:17:32;;;;;;;34.80;21.43;;;;;;;;;;5073730;28;20482;-49
2024/01/20 04:19:57;;;;;;;34.40;21.97;;;;;;;;;;5073822;28;20433;-50
2024/01/20 04:22:25;;;;;;;37.47;21.77;;;;;;;;;;5073577;28;20426;-49
2024/01/20 04:24:51;;;;;;;30.50;20.10;;;;;;;;;;5073659;28;20210;-50
2024/01/20 04:27:17;;;;;;;35.57;20.87;;;;;;;;;;5073497;28;20944;-50
2024/01/20 04:29:43;;;;;;;35.27;21.13;;;;;;;;;;5074167;28;20426;-51
2024/01/20 04:32:09;;;;;;;34.67;21.50;;;;;;;;;;5073596;28;20860;-50
2024/01/20 04:34:35;;;;;;;33.00;20.30;;;;;;;;;;5073383;28;20274;-50
2024/01/20 04:37:01;;;;;;;32.90;20.43;;;;;;;;;;5073480;28;20709;-50
2024/01/20 04:39:28;;;;;;;29.83;20.13;;;;;;;;;;5073367;28;20200;-51
2024/01/20 04:41:54;;;;;;;33.93;21.27;;;;;;;;;;5073242;28;20442;-50
2024/01/20 04:44:22;;;;;;;35.53;21.67;;;;;;;;;;5073188;28;20473;-50
2024/01/20 04:46:48;;;;;;;32.83;21.07;;;;;;;;;;5073082;28;20426;-51
2024/01/20 04:49:14;;;;;;;31.37;19.77;;;;;;;;;;5073199;28;20482;-51
2024/01/20 04:51:40;;;;;;;32.43;20.03;;;;;;;;;;5073053;28;20203;-50
2024/01/20 04:54:06;;;;;;;35.73;20.83;;;;;;;;;;5073130;28;20560;-50
2024/01/20 04:56:33;;;;;;;34.27;20.93;;;;;;;;;;5072996;28;20480;-50
2024/01/20 04:58:59;;;;;;;34.97;20.83;;;;;;;;;;5073047;28;20442;-50
2024/01/20 05:01:25;;;;;;;29.63;20.57;;;;;;;;;;5072793;28;20445;-50
2024/01/20 05:03:51;;;;;;;33.77;20.03;;;;;;;;;;5072866;28;20662;-50
2024/01/20 05:06:17;;;;;;;31.67;21.27;;;;;;;;;;5072713;28;20464;-50
2024/01/20 05:08:43;;;;;;;32.00;20.80;;;;;;;;;;5072759;28;20430;-51
2024/01/20 05:11:09;;;;;;;34.07;20.50;;;;;;;;;;5071936;28;20208;-50
2024/01/20 05:13:37;;;;;;;39.10;21.43;;;;;;;;;;5072370;28;20235;-51
2024/01/20 05:16:03;;;;;;;33.70;21.67;;;;;;;;;;5072563;28;20967;-50
2024/01/20 05:18:29;;;;;;;34.47;21.90;;;;;;;;;;5072583;28;20486;-50
2024/01/20 05:20:55;;;;;;;34.00;21.53;;;;;;;;;;5072477;28;20422;-51
2024/01/20 05:23:21;;;;;;;36.37;21.63;;;;;;;;;;5072352;28;20450;-51
2024/01/20 05:25:47;;;;;;;36.83;21.40;;;;;;;;;;5072408;28;20199;-51
2024/01/20 05:28:12;;;;;;;32.97;21.37;;;;;;;;;;5072429;28;20251;-51
2024/01/20 05:30:40;;;;;;;33.67;20.27;;;;;;;;;;5072337;28;20203;-50
2024/01/20 05:33:08;;;;;;;34.23;20.63;;;;;;;;;;5072404;28;20226;-51
2024/01/20 05:35:34;;;;;;;35.20;20.83;;;;;;;;;;5072215;28;20426;-51
2024/01/20 05:38:00;;;;;;;32.07;20.17;;;;;;;;;;5072239;28;21060;-51
2024/01/20 05:40:26;;;;;;;33.47;19.73;;;;;;;;;;5072076;28;20199;-51
2024/01/20 05:42:52;;;;;;;36.27;21.63;;;;;;;;;;5072117;28;20199;-51
2024/01/20 05:45:18;;;;;;;34.50;20.70;;;;;;;;;;5072127;28;20203;-51
2024/01/20 05:47:45;;;;;;;33.53;21.57;;;;;;;;;;5072090;28;20184;-51
2024/01/20 05:50:11;;;;;;;33.67;21.33;;;;;;;;;;5071999;28;20298;-50
2024/01/20 05:52:37;;;;;;;31.63;20.53;;;;;;;;;;5071982;28;20465;-50
2024/01/20 05:55:03;;;;;;;33.70;21.07;;;;;;;;;;5072016;28;20674;-50
2024/01/20 05:57:29;;;;;;;33.37;21.13;;;;;;;;;;5071857;28;20235;-51
2024/01/20 05:59:55;;;;;;;31.70;21.00;;;;;;;;;;5071835;28;20442;-51
2024/01/20 06:02:21;;;;;;;29.87;20.30;;;;;;;;;;5071940;28;20195;-52
2024/01/20 06:04:48;;;;;;;32.07;19.53;;;;;;;;;;5071885;28;20532;-51
2024/01/20 06:07:14;;;;;;;32.60;20.57;;;;;;;;;;5071942;28;20445;-51
2024/01/20 06:09:40;;;;;;;31.87;20.70;;;;;;;;;;5071700;28;20525;-50
2024/01/20 06:12:07;;;;;;;29.37;21.07;;;;;;;;;;5071494;28;20227;-51
2024/01/20 06:14:33;;;;;;;31.47;21.10;;;;;;;;;;5071549;28;20213;-51
2024/01/20 06:16:59;;;;;;;32.23;21.00;;;;;;;;;;5071667;28;20529;-51
2024/01/20 06:19:24;;;;;;;34.33;21.27;;;;;;;;;;5071621;28;20607;-51
2024/01/20 06:21:52;;;;;;;31.07;20.67;;;;;;;;;;5073530;28;20203;-50
2024/01/20 06:24:18;;;;;;;33.40;21.30;;;;;;;;;;5076030;28;20211;-51
2024/01/20 06:26:44;;;;;;;32.97;21.60;;;;;;;;;;5075873;28;20433;-51
2024/01/20 06:29:10;;;;;;;33.07;21.10;;;;;;;;;;5075861;28;20739;-50
2024/01/20 06:31:36;;;;;;;30.33;19.37;;;;;;;;;;5075684;28;20191;-51
2024/01/20 06:34:03;;;;;;;33.50;21.37;;;;;;;;;;5075989;28;20465;-51
2024/01/20 06:36:29;;;;;;;34.17;21.93;;;;;;;;;;5075851;28;20210;-51
2024/01/20 06:38:56;;;;;;;39.90;23.47;;;;;;;;;;5075551;28;21045;-51
2024/01/20 06:41:22;;;;;;;35.13;23.33;;;;;;;;;;5075472;28;20938;-51
2024/01/20 06:43:48;;;;;;;34.73;22.00;;;;;;;;;;5075480;28;20471;-51
2024/01/20 06:46:14;;;;;;;28.30;20.77;;;;;;;;;;5075508;28;20434;-51
2024/01/20 06:48:40;;;;;;;32.23;22.00;;;;;;;;;;5075408;28;20433;-51
2024/01/20 06:51:06;;;;;;;29.43;21.03;;;;;;;;;;5075373;28;20518;-50
2024/01/20 06:53:32;;;;;;;32.50;22.17;;;;;;;;;;5075323;28;20583;-51
2024/01/20 06:56:00;;;;;;;32.20;21.10;;;;;;;;;;5075566;28;20482;-50
2024/01/20 06:58:25;;;;;;;38.77;23.53;;;;;;;;;;5075119;28;20285;-51
2024/01/20 07:00:52;;;;;;;35.43;22.37;;;;;;;;;;5075274;28;21023;-51
2024/01/20 07:03:18;;;;;;;36.47;23.33;;;;;;;;;;5075096;28;20657;-52
2024/01/20 07:05:44;;;;;;;31.87;22.00;;;;;;;;;;5075066;28;20437;-51
2024/01/20 07:08:10;;;;;;;39.10;22.50;;;;;;;;;;5075114;28;20433;-50
2024/01/20 07:10:36;;;;;;;37.03;24.13;;;;;;;;;;5074871;28;20456;-51
2024/01/20 07:13:03;;;;;;;36.57;23.40;;;;;;;;;;5074398;28;20474;-51
2024/01/20 07:15:29;;;;;;;37.17;22.63;;;;;;;;;;5074356;28;20207;-50
2024/01/20 07:17:56;;;;;;;34.27;22.33;;;;;;;;;;5073747;28;20496;-51
2024/01/20 07:20:22;;;;;;;37.40;21.67;;;;;;;;;;5073626;28;20210;-51
2024/01/20 07:22:49;;;;;;;34.07;21.60;;;;;;;;;;5073746;28;20491;-51
2024/01/20 07:25:15;;;;;;;34.30;22.83;;;;;;;;;;5074970;28;20428;-51
2024/01/20 07:27:41;;;;;;;36.50;21.90;;;;;;;;;;5074679;28;20445;-51
2024/01/20 07:30:09;;;;;;;36.97;21.60;;;;;;;;;;5074638;28;20453;-51
2024/01/20 07:32:36;;;;;;;34.73;21.90;;;;;;;;;;5073940;28;20445;-51
2024/01/20 07:35:02;;;;;;;36.00;21.73;;;;;;;;;;5074152;28;20483;-51
2024/01/20 07:37:28;;;;;;;41.93;22.10;;;;;;;;;;5074724;28;20484;-51
2024/01/20 07:39:54;;;;;;;34.73;21.00;;;;;;;;;;5074489;28;20433;-51
2024/01/20 07:42:20;;;;;;;36.80;21.93;;;;;;;;;;5074379;28;20203;-52
2024/01/20 07:44:46;;;;;;;35.53;21.87;;;;;;;;;;5074512;28;20229;-51
2024/01/20 07:47:15;;;;;;;32.27;21.87;;;;;;;;;;5074226;28;20200;-49
2024/01/20 07:49:41;;;;;;;33.53;21.53;;;;;;;;;;5074312;28;20433;-49
2024/01/20 07:52:07;;;;;;;35.10;20.70;;;;;;;;;;5074095;28;20449;-50
2024/01/20 07:54:33;;;;;;;39.50;24.27;;;;;;;;;;5073907;28;20274;-51
2024/01/20 07:56:59;;;;;;;31.57;21.40;;;;;;;;;;5074006;28;20858;-52
2024/01/20 07:59:25;;;;;;;34.50;20.40;;;;;;;;;;5074095;28;20422;-52
2024/01/20 08:01:51;;;;;;;31.30;21.33;;;;;;;;;;5073835;28;21034;-52
2024/01/20 08:04:18;;;;;;;32.30;20.93;;;;;;;;;;5074129;28;20282;-52
2024/01/20 08:06:44;;;;;;;33.10;21.03;;;;;;;;;;5074008;28;20196;-52
2024/01/20 08:09:10;;;;;;;32.40;20.30;;;;;;;;;;5074037;28;20463;-51
2024/01/20 08:11:36;;;;;;;32.13;19.17;;;;;;;;;;5073626;28;20229;-52
2024/01/20 08:14:02;;;;;;;32.10;20.53;;;;;;;;;;5073973;28;20434;-52
2024/01/20 08:16:28;;;;;;;34.70;21.07;;;;;;;;;;5073737;28;20720;-52
2024/01/20 08:18:55;;;;;;;34.10;20.97;;;;;;;;;;5073465;28;20223;-51
2024/01/20 08:21:22;;;;;;;27.40;18.77;;;;;;;;;;5071752;28;20476;-51
2024/01/20 08:23:48;;;;;;;28.63;19.20;;;;;;;;;;5072891;28;20962;-51
2024/01/20 08:26:14;;;;;;;26.73;19.03;;;;;;;;;;5073317;28;20438;-51
2024/01/20 08:28:40;;;;;;;26.93;18.33;;;;;;;;;;5066435;28;20438;-51
2024/01/20 08:31:07;;;;;;;26.77;17.83;;;;;;;;;;5059559;28;20434;-51
2024/01/20 08:33:33;;;;;;;26.57;17.57;;;;;;;;;;5059351;28;20274;-51
2024/01/20 08:35:59;;;;;;;24.90;17.47;;;;;;;;;;5059662;28;20462;-51
2024/01/20 08:38:27;;;;;;;25.27;18.27;;;;;;;;;;5059346;28;20521;-51
2024/01/20 08:40:53;;;;;;;27.17;18.90;;;;;;;;;;5059325;28;20843;-51
2024/01/20 08:43:19;;;;;;;27.33;18.27;;;;;;;;;;5059246;28;20513;-51
2024/01/20 08:45:44;;;;;;;33.70;20.43;;;;;;;;;;5059223;28;20192;-50
2024/01/20 08:48:11;;;;;;;27.43;18.30;;;;;;;;;;5059184;28;20231;-51
2024/01/20 08:50:37;;;;;;;27.77;19.37;;;;;;;;;;5059052;28;20455;-51
2024/01/20 08:53:03;;;;;;;31.13;20.47;;;;;;;;;;5059243;28;20495;-52
2024/01/20 08:55:30;;;;;;;30.40;19.27;;;;;;;;;;5059446;28;20449;-52
2024/01/20 08:57:56;;;;;;;30.70;19.33;;;;;;;;;;5058820;28;20987;-51
2024/01/20 09:00:23;;;;;;;36.57;21.63;;;;;;;;;;5059096;28;20528;-51
2024/01/20 09:02:49;;;;;;;34.50;21.33;;;;;;;;;;5057055;28;20936;-51
2024/01/20 09:05:17;;;;;;;35.63;21.63;;;;;;;;;;5058966;28;20524;-51
2024/01/20 09:07:43;;;;;;;31.97;21.03;;;;;;;;;;5058858;28;20440;-52
2024/01/20 09:10:09;;;;;;;35.97;21.00;;;;;;;;;;5058870;28;20445;-51
2024/01/20 09:12:37;;;;;;;31.57;20.40;;;;;;;;;;5058440;28;20242;-51
2024/01/20 09:15:03;;;;;;;37.57;22.63;;;;;;;;;;5058758;28;20442;-52
2024/01/20 09:17:29;;;;;;;30.60;19.40;;;;;;;;;;5058445;28;20584;-51
2024/01/20 09:19:55;;;;;;;25.97;18.37;;;;;;;;;;5058496;28;20513;-51
2024/01/20 09:22:21;;;;;;;23.67;16.10;;;;;;;;;;5058524;28;20562;-51
2024/01/20 09:24:47;;;;;;;30.97;18.03;;;;;;;;;;5058474;28;20203;-51
2024/01/20 09:27:13;;;;;;;23.50;16.47;;;;;;;;;;5058731;28;20708;-51
2024/01/20 09:29:41;;;;;;;24.70;16.57;;;;;;;;;;5057158;28;20199;-51
2024/01/20 09:32:08;;;;;;;23.97;16.80;;;;;;;;;;5058301;28;20228;-50
2024/01/20 09:34:34;;;;;;;25.90;16.63;;;;;;;;;;5058248;28;20434;-51
2024/01/20 09:37:00;;;;;;;23.13;15.53;;;;;;;;;;5059968;28;20506;-51
2024/01/20 09:39:26;;;;;;;24.13;15.80;;;;;;;;;;5058247;28;20201;-51
2024/01/20 09:41:52;;;;;;;25.03;15.47;;;;;;;;;;5057956;28;20505;-51
2024/01/20 09:44:18;;;;;;;23.50;15.90;;;;;;;;;;5058069;28;20461;-52
2024/01/20 09:46:46;;;;;;;21.53;14.27;;;;;;;;;;5057953;28;20487;-53
2024/01/20 09:49:12;;;;;;;21.63;15.30;;;;;;;;;;5058166;28;20449;-52
2024/01/20 09:51:42;;;;;;;20.33;14.50;;;;;;;;;;5058220;28;20799;-52
2024/01/20 09:54:08;;;;;;;21.07;13.40;;;;;;;;;;5058133;28;20187;-51
2024/01/20 09:56:34;;;;;;;21.97;14.03;;;;;;;;;;5059034;28;20258;-51
2024/01/20 09:59:01;;;;;;;20.93;13.60;;;;;;;;;;5058033;28;20223;-52
2024/01/20 10:01:27;;;;;;;19.80;13.93;;;;;;;;;;5058011;28;20595;-51
2024/01/20 10:03:59;;;;;;;17.70;12.80;;;;;;;;;;5057799;28;20196;-52
2024/01/20 10:06:26;;;;;;;21.87;14.37;;;;;;;;;;5059538;28;20199;-51
2024/01/20 10:08:52;;;;;;;18.17;13.10;;;;;;;;;;5059210;28;20655;-51
2024/01/20 10:11:18;;;;;;;19.83;14.20;;;;;;;;;;5059579;28;20278;-51
2024/01/20 10:13:44;;;;;;;20.73;13.57;;;;;;;;;;5058059;28;20605;-51
2024/01/20 10:16:10;;;;;;;18.17;12.87;;;;;;;;;;5057705;28;20286;-51
2024/01/20 10:18:36;;;;;;;19.70;14.33;;;;;;;;;;5061017;28;20277;-51
2024/01/20 10:21:04;;;;;;;19.97;14.00;;;;;;;;;;5057731;28;20622;-51
2024/01/20 10:23:30;;;;;;;18.27;13.70;;;;;;;;;;5059721;28;20777;-51
2024/01/20 10:25:59;;;;;;;18.27;13.63;;;;;;;;;;5060976;28;20771;-52
2024/01/20 10:28:25;;;;;;;17.60;12.17;;;;;;;;;;5057677;28;20596;-51
2024/01/20 10:30:51;;;;;;;19.50;13.53;;;;;;;;;;5057801;28;20313;-51
2024/01/20 10:33:17;;;;;;;19.67;13.57;;;;;;;;;;5061067;28;20290;-51
2024/01/20 10:35:44;;;;;;;20.10;13.47;;;;;;;;;;5059140;28;20588;-51
2024/01/20 10:38:13;;;;;;;17.83;13.87;;;;;;;;;;5057258;28;20253;-51
2024/01/20 10:40:42;;;;;;;17.67;13.23;;;;;;;;;;5057575;28;20210;-51
2024/01/20 10:43:11;;;;;;;16.53;12.83;;;;;;;;;;5057549;28;20206;-50
2024/01/20 10:45:46;;;;;;;18.27;13.20;;;;;;;;;;5057527;28;20206;-51
2024/01/20 10:48:14;;;;;;;22.17;15.13;;;;;;;;;;5057651;28;20213;-50
2024/01/20 10:50:41;;;;;;;23.87;14.87;;;;;;;;;;5057334;28;20211;-50
2024/01/20 10:53:08;;;;;;;22.90;14.30;;;;;;;;;;5059167;28;20457;-50
2024/01/20 10:55:36;;;;;;;19.57;14.40;;;;;;;;;;5057318;28;20442;-50
2024/01/20 10:58:04;;;;;;;21.27;14.47;;;;;;;;;;5059063;28;20500;-50
2024/01/20 11:00:30;;;;;;;21.33;15.00;;;;;;;;;;5057538;28;20533;-52
2024/01/20 11:02:56;;;;;;;21.27;15.07;;;;;;;;;;5058882;28;20461;-50
2024/01/20 11:05:22;;;;;;;23.20;14.73;;;;;;;;;;5058781;28;20706;-50
2024/01/20 11:07:58;;;;;;;21.23;15.00;;;;;;;;;;5058945;28;20442;-50
2024/01/20 11:10:24;;;;;;;20.43;15.13;;;;;;;;;;5062763;28;20436;-49
2024/01/20 11:13:00;;;;;;;20.27;14.83;;;;;;;;;;5060751;28;20484;-50
2024/01/20 11:15:28;;;;;;;21.00;14.20;;;;;;;;;;5062750;28;20471;-50
2024/01/20 11:17:54;;;;;;;26.17;14.70;;;;;;;;;;5060591;28;20513;-50
2024/01/20 11:20:20;;;;;;;22.33;14.57;;;;;;;;;;5062603;28;20609;-50
2024/01/20 11:22:47;;;;;;;21.47;14.77;;;;;;;;;;5062480;28;20266;-50
2024/01/20 11:25:14;;;;;;;19.77;14.83;;;;;;;;;;5062665;28;20199;-49
2024/01/20 11:27:46;;;;;;;21.63;13.97;;;;;;;;;;5062225;28;20438;-50
2024/01/20 11:30:14;;;;;;;21.20;14.73;;;;;;;;;;5062348;28;20673;-50
2024/01/20 11:32:40;;;;;;;18.63;14.50;;;;;;;;;;5062218;28;20200;-50
2024/01/20 11:35:07;;;;;;;19.00;13.57;;;;;;;;;;5060398;28;20206;-50
2024/01/20 11:37:33;;;;;;;19.57;13.73;;;;;;;;;;5062322;28;20227;-49
2024/01/20 11:40:04;;;;;;;20.37;14.40;;;;;;;;;;5060496;28;20725;-49
2024/01/20 11:42:32;;;;;;;19.97;14.17;;;;;;;;;;5060486;28;20218;-50
2024/01/20 11:44:58;;;;;;;22.00;15.83;;;;;;;;;;5061963;28;20261;-49
2024/01/20 11:47:25;;;;;;;19.57;14.97;;;;;;;;;;5061758;28;20222;-50
2024/01/20 11:49:54;;;;;;;23.77;16.13;;;;;;;;;;5060380;28;20251;-49
2024/01/20 11:52:20;;;;;;;21.13;15.20;;;;;;;;;;5060267;28;20191;-50
2024/01/20 11:54:46;;;;;;;22.03;15.70;;;;;;;;;;5061987;28;20206;-50
2024/01/20 11:57:18;;;;;;;24.63;16.63;;;;;;;;;;5060080;28;20286;-49
2024/01/20 11:59:44;;;;;;;24.07;15.47;;;;;;;;;;5060236;28;20631;-49
2024/01/20 12:02:10;;;;;;;23.33;16.67;;;;;;;;;;5060282;28;21054;-50
2024/01/20 12:04:39;;;;;;;25.87;17.07;;;;;;;;;;5061754;28;20215;-49
2024/01/20 12:07:05;;;;;;;24.47;17.03;;;;;;;;;;5059738;28;20453;-50
2024/01/20 12:09:31;;;;;;;23.20;15.97;;;;;;;;;;5061721;28;20442;-49
2024/01/20 12:11:57;;;;;;;23.73;16.33;;;;;;;;;;5059403;28;20504;-50
2024/01/20 12:14:23;;;;;;;25.43;16.67;;;;;;;;;;5061560;28;20530;-49
2024/01/20 12:16:49;;;;;;;25.97;16.50;;;;;;;;;;5061424;28;20992;-49
2024/01/20 12:19:16;;;;;;;26.30;17.37;;;;;;;;;;5059501;28;20230;-50
2024/01/20 12:21:43;;;;;;;27.67;17.30;;;;;;;;;;5059591;28;20438;-49
2024/01/20 12:24:09;;;;;;;26.27;17.07;;;;;;;;;;5059629;28;20442;-50
2024/01/20 12:26:35;;;;;;;28.37;18.10;;;;;;;;;;5059445;28;20950;-50
2024/01/20 12:29:02;;;;;;;27.70;17.70;;;;;;;;;;5061294;28;20446;-50
2024/01/20 12:31:30;;;;;;;28.93;18.23;;;;;;;;;;5059793;28;20203;-51
2024/01/20 12:33:56;;;;;;;26.10;16.27;;;;;;;;;;5059467;28;20438;-51
2024/01/20 12:36:22;;;;;;;22.13;16.70;;;;;;;;;;5059499;28;20430;-51
2024/01/20 12:38:49;;;;;;;27.80;17.57;;;;;;;;;;5059311;28;20586;-51
2024/01/20 12:41:16;;;;;;;26.00;16.97;;;;;;;;;;5059317;28;20450;-51
2024/01/20 12:43:45;;;;;;;27.00;17.90;;;;;;;;;;5059614;28;20446;-50
2024/01/20 12:46:11;;;;;;;23.67;15.70;;;;;;;;;;5058980;28;20438;-50
2024/01/20 12:48:37;;;;;;;24.97;17.60;;;;;;;;;;5060881;28;20440;-50
2024/01/20 12:51:04;;;;;;;27.17;18.13;;;;;;;;;;5058944;28;20442;-50
2024/01/20 12:53:30;;;;;;;28.33;18.30;;;;;;;;;;5060827;28;20230;-50
2024/01/20 12:55:57;;;;;;;24.77;16.47;;;;;;;;;;5058823;28;20433;-50
2024/01/20 12:58:23;;;;;;;27.30;16.43;;;;;;;;;;5058786;28;20470;-50
2024/01/20 13:00:49;;;;;;;28.13;17.63;;;;;;;;;;5058826;28;20455;-49
2024/01/20 13:03:15;;;;;;;25.53;16.40;;;;;;;;;;5058843;28;20948;-50
2024/01/20 13:05:43;;;;;;;22.77;15.87;;;;;;;;;;5060329;28;20199;-51
2024/01/20 13:08:09;;;;;;;28.20;17.10;;;;;;;;;;5060361;28;20215;-49
2024/01/20 13:10:35;;;;;;;23.97;16.60;;;;;;;;;;5058626;28;20441;-50
2024/01/20 13:13:02;;;;;;;27.43;17.53;;;;;;;;;;5058596;28;20473;-50
2024/01/20 13:15:29;;;;;;;23.60;16.77;;;;;;;;;;5058863;28;20222;-50
2024/01/20 13:17:55;;;;;;;28.13;17.57;;;;;;;;;;5058265;28;20996;-50
2024/01/20 13:20:22;;;;;;;26.37;16.63;;;;;;;;;;5058732;28;20593;-50
2024/01/20 13:22:48;;;;;;;25.53;16.67;;;;;;;;;;5058487;28;20219;-50
2024/01/20 13:25:14;;;;;;;24.37;16.67;;;;;;;;;;5060288;28;20830;-50
2024/01/20 13:27:40;;;;;;;24.90;15.93;;;;;;;;;;5058472;28;20461;-50
2024/01/20 13:30:08;;;;;;;23.00;15.20;;;;;;;;;;5058120;28;20436;-50
2024/01/20 13:32:34;;;;;;;22.20;15.13;;;;;;;;;;5059354;28;21150;-50
2024/01/20 13:35:00;;;;;;;24.30;16.23;;;;;;;;;;5058289;28;20448;-49
2024/01/20 13:37:26;;;;;;;24.10;15.73;;;;;;;;;;5058503;28;20911;-49
2024/01/20 13:39:52;;;;;;;22.97;15.47;;;;;;;;;;5058001;28;20257;-49
2024/01/20 13:42:18;;;;;;;25.17;15.73;;;;;;;;;;5059894;28;20263;-48
2024/01/20 13:44:44;;;;;;;27.10;16.20;;;;;;;;;;5058322;28;20208;-50
2024/01/20 13:47:12;;;;;;;25.00;15.60;;;;;;;;;;5058038;28;20207;-49
2024/01/20 13:49:38;;;;;;;23.93;15.63;;;;;;;;;;5058121;28;20196;-49
2024/01/20 13:52:04;;;;;;;25.00;15.70;;;;;;;;;;5058119;28;20523;-50
2024/01/20 13:54:30;;;;;;;20.37;13.67;;;;;;;;;;5058263;28;20430;-50
2024/01/20 13:56:56;;;;;;;23.60;15.37;;;;;;;;;;5059599;28;20445;-49
2024/01/20 13:59:26;;;;;;;24.37;15.60;;;;;;;;;;5058103;28;20697;-50
2024/01/20 14:01:53;;;;;;;21.17;15.30;;;;;;;;;;5059687;28;20288;-49
2024/01/20 14:04:20;;;;;;;20.83;13.97;;;;;;;;;;5057883;28;20442;-49
2024/01/20 14:06:46;;;;;;;22.60;15.53;;;;;;;;;;5057958;28;20468;-50
2024/01/20 14:09:13;;;;;;;21.23;14.40;;;;;;;;;;5059512;28;20466;-50
2024/01/20 14:11:39;;;;;;;22.17;14.17;;;;;;;;;;5058246;28;20192;-49